sensor_id;sensor_type;location;lat;lon;timestamp;temperature;humidity
18361;SHT31;9308;48.550;9.108;2022-08-25T00:00:43;20.86;65.92
18361;SHT31;9308;48.550;9.108;2022-08-25T00:03:10;20.86;65.45
18361;SHT31;9308;48.550;9.108;2022-08-25T00:05:36;20.74;65.85
18361;SHT31;9308;48.550;9.108;2022-08-25T00:08:02;20.86;65.73
18361;SHT31;9308;48.550;9.108;2022-08-25T00:10:31;20.72;66.75
18361;SHT31;9308;48.550;9.108;2022-08-25T00:12:57;20.58;66.47
18361;SHT31;9308;48.550;9.108;2022-08-25T00:15:22;20.55;66.77
18361;SHT31;9308;48.550;9.108;2022-08-25T00:17:48;20.44;66.84
18361;SHT31;9308;48.550;9.108;2022-08-25T00:20:14;20.51;67.05
18361;SHT31;9308;48.550;9.108;2022-08-25T00:22:39;20.54;66.80
18361;SHT31;9308;48.550;9.108;2022-08-25T00:25:05;20.48;66.99
18361;SHT31;9308;48.550;9.108;2022-08-25T00:27:31;20.54;66.64
18361;SHT31;9308;48.550;9.108;2022-08-25T00:29:56;20.48;67.09
18361;SHT31;9308;48.550;9.108;2022-08-25T00:32:22;20.41;67.40
18361;SHT31;9308;48.550;9.108;2022-08-25T00:34:49;20.29;67.19
18361;SHT31;9308;48.550;9.108;2022-08-25T00:37:15;20.29;67.71
18361;SHT31;9308;48.550;9.108;2022-08-25T00:39:41;20.30;67.60
18361;SHT31;9308;48.550;9.108;2022-08-25T00:42:08;20.31;67.37
18361;SHT31;9308;48.550;9.108;2022-08-25T00:44:34;20.30;67.20
18361;SHT31;9308;48.550;9.108;2022-08-25T00:47:01;20.17;68.03
18361;SHT31;9308;48.550;9.108;2022-08-25T00:49:36;20.19;68.01
18361;SHT31;9308;48.550;9.108;2022-08-25T00:52:15;20.09;67.91
18361;SHT31;9308;48.550;9.108;2022-08-25T00:57:19;20.05;68.38
18361;SHT31;9308;48.550;9.108;2022-08-25T00:59:46;19.96;68.60
18361;SHT31;9308;48.550;9.108;2022-08-25T01:02:13;19.98;68.56
18361;SHT31;9308;48.550;9.108;2022-08-25T01:04:40;19.93;68.46
18361;SHT31;9308;48.550;9.108;2022-08-25T01:07:06;19.85;69.15
18361;SHT31;9308;48.550;9.108;2022-08-25T01:09:32;19.98;68.28
18361;SHT31;9308;48.550;9.108;2022-08-25T01:11:58;19.89;68.80
18361;SHT31;9308;48.550;9.108;2022-08-25T01:14:26;19.83;68.80
18361;SHT31;9308;48.550;9.108;2022-08-25T01:16:51;19.75;69.59
18361;SHT31;9308;48.550;9.108;2022-08-25T01:19:17;19.79;69.35
18361;SHT31;9308;48.550;9.108;2022-08-25T01:21:50;19.65;69.69
18361;SHT31;9308;48.550;9.108;2022-08-25T01:24:40;19.62;69.50
18361;SHT31;9308;48.550;9.108;2022-08-25T01:27:06;19.57;69.69
18361;SHT31;9308;48.550;9.108;2022-08-25T01:29:32;19.58;69.92
18361;SHT31;9308;48.550;9.108;2022-08-25T01:32:00;19.48;70.05
18361;SHT31;9308;48.550;9.108;2022-08-25T01:34:29;19.55;70.15
18361;SHT31;9308;48.550;9.108;2022-08-25T01:36:56;19.51;70.31
18361;SHT31;9308;48.550;9.108;2022-08-25T01:39:22;19.45;70.38
18361;SHT31;9308;48.550;9.108;2022-08-25T01:42:07;19.53;69.98
18361;SHT31;9308;48.550;9.108;2022-08-25T01:44:41;19.41;70.26
18361;SHT31;9308;48.550;9.108;2022-08-25T01:47:08;19.50;70.03
18361;SHT31;9308;48.550;9.108;2022-08-25T01:49:34;19.43;70.46
18361;SHT31;9308;48.550;9.108;2022-08-25T01:52:06;19.45;70.10
18361;SHT31;9308;48.550;9.108;2022-08-25T01:54:34;19.58;69.79
18361;SHT31;9308;48.550;9.108;2022-08-25T01:57:00;19.53;69.61
18361;SHT31;9308;48.550;9.108;2022-08-25T01:59:26;19.65;69.46
18361;SHT31;9308;48.550;9.108;2022-08-25T02:01:51;19.53;69.85
18361;SHT31;9308;48.550;9.108;2022-08-25T02:04:39;19.34;70.12
18361;SHT31;9308;48.550;9.108;2022-08-25T02:07:07;19.40;69.88
18361;SHT31;9308;48.550;9.108;2022-08-25T02:09:33;19.47;70.05
18361;SHT31;9308;48.550;9.108;2022-08-25T02:11:59;19.41;69.97
18361;SHT31;9308;48.550;9.108;2022-08-25T02:14:26;19.34;70.29
18361;SHT31;9308;48.550;9.108;2022-08-25T02:16:53;19.37;69.99
18361;SHT31;9308;48.550;9.108;2022-08-25T02:19:20;19.31;70.58
18361;SHT31;9308;48.550;9.108;2022-08-25T02:21:47;19.43;70.02
18361;SHT31;9308;48.550;9.108;2022-08-25T02:24:13;19.31;70.42
18361;SHT31;9308;48.550;9.108;2022-08-25T02:26:38;19.19;71.08
18361;SHT31;9308;48.550;9.108;2022-08-25T02:29:05;19.17;71.10
18361;SHT31;9308;48.550;9.108;2022-08-25T02:31:32;19.13;71.30
18361;SHT31;9308;48.550;9.108;2022-08-25T02:33:58;19.10;71.03
18361;SHT31;9308;48.550;9.108;2022-08-25T02:36:24;19.17;70.71
18361;SHT31;9308;48.550;9.108;2022-08-25T02:38:49;19.22;70.73
18361;SHT31;9308;48.550;9.108;2022-08-25T02:41:18;19.27;70.56
18361;SHT31;9308;48.550;9.108;2022-08-25T02:43:46;19.04;71.41
18361;SHT31;9308;48.550;9.108;2022-08-25T02:46:13;19.13;71.06
18361;SHT31;9308;48.550;9.108;2022-08-25T02:48:40;19.04;71.20
18361;SHT31;9308;48.550;9.108;2022-08-25T02:51:07;18.89;71.82
18361;SHT31;9308;48.550;9.108;2022-08-25T02:53:34;19.14;70.88
18361;SHT31;9308;48.550;9.108;2022-08-25T02:56:00;18.86;71.55
18361;SHT31;9308;48.550;9.108;2022-08-25T02:58:26;18.64;72.08
18361;SHT31;9308;48.550;9.108;2022-08-25T03:00:52;18.58;72.60
18361;SHT31;9308;48.550;9.108;2022-08-25T03:03:18;18.68;72.32
18361;SHT31;9308;48.550;9.108;2022-08-25T03:05:45;18.57;72.48
18361;SHT31;9308;48.550;9.108;2022-08-25T03:08:10;18.51;72.52
18361;SHT31;9308;48.550;9.108;2022-08-25T03:10:36;18.60;72.38
18361;SHT31;9308;48.550;9.108;2022-08-25T03:13:02;18.47;72.61
18361;SHT31;9308;48.550;9.108;2022-08-25T03:15:29;18.50;72.59
18361;SHT31;9308;48.550;9.108;2022-08-25T03:17:55;18.52;72.64
18361;SHT31;9308;48.550;9.108;2022-08-25T03:20:22;18.45;72.78
18361;SHT31;9308;48.550;9.108;2022-08-25T03:22:47;18.52;72.77
18361;SHT31;9308;48.550;9.108;2022-08-25T03:25:13;18.44;72.87
18361;SHT31;9308;48.550;9.108;2022-08-25T03:27:57;18.23;73.61
18361;SHT31;9308;48.550;9.108;2022-08-25T03:30:23;18.10;73.82
18361;SHT31;9308;48.550;9.108;2022-08-25T03:32:48;18.25;73.93
18361;SHT31;9308;48.550;9.108;2022-08-25T03:35:14;18.10;74.20
18361;SHT31;9308;48.550;9.108;2022-08-25T03:37:39;18.18;73.86
18361;SHT31;9308;48.550;9.108;2022-08-25T03:40:07;18.14;73.88
18361;SHT31;9308;48.550;9.108;2022-08-25T03:42:34;18.07;74.24
18361;SHT31;9308;48.550;9.108;2022-08-25T03:45:03;18.14;74.12
18361;SHT31;9308;48.550;9.108;2022-08-25T03:47:28;17.97;74.49
18361;SHT31;9308;48.550;9.108;2022-08-25T03:49:55;18.07;74.14
18361;SHT31;9308;48.550;9.108;2022-08-25T03:52:21;18.02;74.25
18361;SHT31;9308;48.550;9.108;2022-08-25T03:54:46;18.02;74.33
18361;SHT31;9308;48.550;9.108;2022-08-25T03:57:12;18.17;73.80
18361;SHT31;9308;48.550;9.108;2022-08-25T03:59:37;17.96;74.44
18361;SHT31;9308;48.550;9.108;2022-08-25T04:02:07;17.93;74.40
18361;SHT31;9308;48.550;9.108;2022-08-25T04:04:33;17.75;74.74
18361;SHT31;9308;48.550;9.108;2022-08-25T04:06:59;17.81;74.71
18361;SHT31;9308;48.550;9.108;2022-08-25T04:09:25;17.83;74.56
18361;SHT31;9308;48.550;9.108;2022-08-25T04:11:51;17.86;74.60
18361;SHT31;9308;48.550;9.108;2022-08-25T04:14:17;17.78;74.77
18361;SHT31;9308;48.550;9.108;2022-08-25T04:16:43;17.83;74.43
18361;SHT31;9308;48.550;9.108;2022-08-25T04:19:10;17.62;75.49
18361;SHT31;9308;48.550;9.108;2022-08-25T04:21:38;17.72;74.93
18361;SHT31;9308;48.550;9.108;2022-08-25T04:24:04;17.68;74.92
18361;SHT31;9308;48.550;9.108;2022-08-25T04:26:50;17.79;74.49
18361;SHT31;9308;48.550;9.108;2022-08-25T04:29:18;17.62;75.29
18361;SHT31;9308;48.550;9.108;2022-08-25T04:31:45;17.57;75.41
18361;SHT31;9308;48.550;9.108;2022-08-25T04:34:12;17.57;75.48
18361;SHT31;9308;48.550;9.108;2022-08-25T04:36:38;17.78;74.66
18361;SHT31;9308;48.550;9.108;2022-08-25T04:39:03;17.58;75.59
18361;SHT31;9308;48.550;9.108;2022-08-25T04:41:29;17.45;75.46
18361;SHT31;9308;48.550;9.108;2022-08-25T04:43:58;17.52;75.50
18361;SHT31;9308;48.550;9.108;2022-08-25T04:46:26;17.44;75.68
18361;SHT31;9308;48.550;9.108;2022-08-25T04:48:53;17.54;74.91
18361;SHT31;9308;48.550;9.108;2022-08-25T04:51:22;17.40;75.33
18361;SHT31;9308;48.550;9.108;2022-08-25T04:53:48;17.51;75.38
18361;SHT31;9308;48.550;9.108;2022-08-25T04:56:16;17.64;75.26
18361;SHT31;9308;48.550;9.108;2022-08-25T04:58:42;17.67;75.07
18361;SHT31;9308;48.550;9.108;2022-08-25T05:01:11;17.67;75.10
18361;SHT31;9308;48.550;9.108;2022-08-25T05:03:40;17.83;74.51
18361;SHT31;9308;48.550;9.108;2022-08-25T05:06:06;17.87;74.62
18361;SHT31;9308;48.550;9.108;2022-08-25T05:08:32;18.06;74.12
18361;SHT31;9308;48.550;9.108;2022-08-25T05:11:03;18.09;74.03
18361;SHT31;9308;48.550;9.108;2022-08-25T05:13:28;18.03;74.53
18361;SHT31;9308;48.550;9.108;2022-08-25T05:15:57;18.00;74.53
18361;SHT31;9308;48.550;9.108;2022-08-25T05:18:25;18.10;74.22
18361;SHT31;9308;48.550;9.108;2022-08-25T05:20:52;18.02;74.71
18361;SHT31;9308;48.550;9.108;2022-08-25T05:23:20;18.31;73.89
18361;SHT31;9308;48.550;9.108;2022-08-25T05:25:46;18.31;74.00
18361;SHT31;9308;48.550;9.108;2022-08-25T05:28:12;18.27;74.22
18361;SHT31;9308;48.550;9.108;2022-08-25T05:30:40;18.14;75.16
18361;SHT31;9308;48.550;9.108;2022-08-25T05:33:07;18.23;75.11
18361;SHT31;9308;48.550;9.108;2022-08-25T05:35:32;18.37;74.66
18361;SHT31;9308;48.550;9.108;2022-08-25T05:37:58;18.44;74.94
18361;SHT31;9308;48.550;9.108;2022-08-25T05:40:23;18.55;74.55
18361;SHT31;9308;48.550;9.108;2022-08-25T05:42:50;18.83;73.62
18361;SHT31;9308;48.550;9.108;2022-08-25T05:45:15;18.88;73.80
18361;SHT31;9308;48.550;9.108;2022-08-25T05:47:42;18.79;74.16
18361;SHT31;9308;48.550;9.108;2022-08-25T05:50:08;18.78;74.68
18361;SHT31;9308;48.550;9.108;2022-08-25T05:52:33;18.86;74.62
18361;SHT31;9308;48.550;9.108;2022-08-25T05:54:59;18.90;74.58
18361;SHT31;9308;48.550;9.108;2022-08-25T05:57:24;19.11;73.90
18361;SHT31;9308;48.550;9.108;2022-08-25T05:59:50;19.26;73.81
18361;SHT31;9308;48.550;9.108;2022-08-25T06:02:15;19.11;73.58
18361;SHT31;9308;48.550;9.108;2022-08-25T06:05:00;19.22;73.99
18361;SHT31;9308;48.550;9.108;2022-08-25T06:07:25;19.30;73.22
18361;SHT31;9308;48.550;9.108;2022-08-25T06:09:51;19.40;73.71
18361;SHT31;9308;48.550;9.108;2022-08-25T06:12:16;19.64;73.04
18361;SHT31;9308;48.550;9.108;2022-08-25T06:14:43;19.78;72.63
18361;SHT31;9308;48.550;9.108;2022-08-25T06:17:08;19.93;72.80
18361;SHT31;9308;48.550;9.108;2022-08-25T06:19:35;19.93;72.37
18361;SHT31;9308;48.550;9.108;2022-08-25T06:22:01;19.95;72.43
18361;SHT31;9308;48.550;9.108;2022-08-25T06:24:27;20.21;71.48
18361;SHT31;9308;48.550;9.108;2022-08-25T06:26:54;20.21;72.20
18361;SHT31;9308;48.550;9.108;2022-08-25T06:29:19;20.40;71.48
18361;SHT31;9308;48.550;9.108;2022-08-25T06:31:45;20.55;71.03
18361;SHT31;9308;48.550;9.108;2022-08-25T06:34:12;20.67;70.38
18361;SHT31;9308;48.550;9.108;2022-08-25T06:36:38;20.55;71.56
18361;SHT31;9308;48.550;9.108;2022-08-25T06:39:04;20.62;70.91
18361;SHT31;9308;48.550;9.108;2022-08-25T06:41:30;20.82;70.10
18361;SHT31;9308;48.550;9.108;2022-08-25T06:43:56;21.00;70.04
18361;SHT31;9308;48.550;9.108;2022-08-25T06:46:24;20.78;71.30
18361;SHT31;9308;48.550;9.108;2022-08-25T06:48:51;21.09;70.33
18361;SHT31;9308;48.550;9.108;2022-08-25T06:51:19;21.33;69.42
18361;SHT31;9308;48.550;9.108;2022-08-25T06:53:46;21.39;69.20
18361;SHT31;9308;48.550;9.108;2022-08-25T06:56:13;21.40;69.01
18361;SHT31;9308;48.550;9.108;2022-08-25T06:58:39;21.50;68.78
18361;SHT31;9308;48.550;9.108;2022-08-25T07:01:10;21.67;68.56
18361;SHT31;9308;48.550;9.108;2022-08-25T07:03:36;21.71;68.72
18361;SHT31;9308;48.550;9.108;2022-08-25T07:06:01;21.82;69.00
18361;SHT31;9308;48.550;9.108;2022-08-25T07:08:27;21.85;68.65
18361;SHT31;9308;48.550;9.108;2022-08-25T07:10:52;21.83;68.74
18361;SHT31;9308;48.550;9.108;2022-08-25T07:13:18;22.20;68.36
18361;SHT31;9308;48.550;9.108;2022-08-25T07:15:43;22.27;67.75
18361;SHT31;9308;48.550;9.108;2022-08-25T07:18:09;22.47;67.03
18361;SHT31;9308;48.550;9.108;2022-08-25T07:20:38;22.39;67.36
18361;SHT31;9308;48.550;9.108;2022-08-25T07:23:04;22.71;66.69
18361;SHT31;9308;48.550;9.108;2022-08-25T07:25:30;22.95;65.86
18361;SHT31;9308;48.550;9.108;2022-08-25T07:27:55;23.09;65.08
18361;SHT31;9308;48.550;9.108;2022-08-25T07:30:22;22.90;64.82
18361;SHT31;9308;48.550;9.108;2022-08-25T07:32:47;23.08;65.27
18361;SHT31;9308;48.550;9.108;2022-08-25T07:35:13;23.30;64.41
18361;SHT31;9308;48.550;9.108;2022-08-25T07:37:47;23.35;64.86
18361;SHT31;9308;48.550;9.108;2022-08-25T07:40:17;23.51;63.96
18361;SHT31;9308;48.550;9.108;2022-08-25T07:42:43;23.98;63.26
18361;SHT31;9308;48.550;9.108;2022-08-25T07:45:10;23.84;62.50
18361;SHT31;9308;48.550;9.108;2022-08-25T07:47:37;23.75;63.13
18361;SHT31;9308;48.550;9.108;2022-08-25T07:50:05;23.94;62.82
18361;SHT31;9308;48.550;9.108;2022-08-25T07:52:31;24.05;62.41
18361;SHT31;9308;48.550;9.108;2022-08-25T07:54:56;24.43;61.36
18361;SHT31;9308;48.550;9.108;2022-08-25T07:57:22;24.57;61.56
18361;SHT31;9308;48.550;9.108;2022-08-25T07:59:50;24.71;61.25
18361;SHT31;9308;48.550;9.108;2022-08-25T08:02:16;24.87;61.00
18361;SHT31;9308;48.550;9.108;2022-08-25T08:04:41;24.90;60.74
18361;SHT31;9308;48.550;9.108;2022-08-25T08:07:08;24.73;59.89
18361;SHT31;9308;48.550;9.108;2022-08-25T08:09:33;24.80;60.26
18361;SHT31;9308;48.550;9.108;2022-08-25T08:11:59;25.03;59.91
18361;SHT31;9308;48.550;9.108;2022-08-25T08:14:24;25.28;59.64
18361;SHT31;9308;48.550;9.108;2022-08-25T08:16:50;25.36;59.23
18361;SHT31;9308;48.550;9.108;2022-08-25T08:19:16;25.18;58.80
18361;SHT31;9308;48.550;9.108;2022-08-25T08:21:42;25.66;58.29
18361;SHT31;9308;48.550;9.108;2022-08-25T08:24:07;25.31;59.06
18361;SHT31;9308;48.550;9.108;2022-08-25T08:26:33;25.45;58.61
18361;SHT31;9308;48.550;9.108;2022-08-25T08:28:59;25.70;57.83
18361;SHT31;9308;48.550;9.108;2022-08-25T08:31:25;25.67;57.35
18361;SHT31;9308;48.550;9.108;2022-08-25T08:33:52;25.87;57.83
18361;SHT31;9308;48.550;9.108;2022-08-25T08:36:18;25.83;57.60
18361;SHT31;9308;48.550;9.108;2022-08-25T08:38:45;26.39;56.90
18361;SHT31;9308;48.550;9.108;2022-08-25T08:44:20;26.62;55.31
18361;SHT31;9308;48.550;9.108;2022-08-25T08:47:04;26.79;55.71
18361;SHT31;9308;48.550;9.108;2022-08-25T08:52:04;26.97;53.80
18361;SHT31;9308;48.550;9.108;2022-08-25T08:54:33;27.22;54.52
18361;SHT31;9308;48.550;9.108;2022-08-25T08:57:13;27.22;54.19
18361;SHT31;9308;48.550;9.108;2022-08-25T08:59:47;27.22;54.07
18361;SHT31;9308;48.550;9.108;2022-08-25T09:02:35;27.14;53.10
18361;SHT31;9308;48.550;9.108;2022-08-25T09:05:07;26.93;53.88
18361;SHT31;9308;48.550;9.108;2022-08-25T09:07:44;27.34;53.13
18361;SHT31;9308;48.550;9.108;2022-08-25T09:10:16;27.79;52.12
18361;SHT31;9308;48.550;9.108;2022-08-25T09:12:50;27.76;52.53
18361;SHT31;9308;48.550;9.108;2022-08-25T09:15:33;28.02;52.19
18361;SHT31;9308;48.550;9.108;2022-08-25T09:18:28;28.18;50.50
18361;SHT31;9308;48.550;9.108;2022-08-25T09:21:14;28.31;51.09
18361;SHT31;9308;48.550;9.108;2022-08-25T09:26:23;28.25;50.59
18361;SHT31;9308;48.550;9.108;2022-08-25T09:28:58;28.41;50.16
18361;SHT31;9308;48.550;9.108;2022-08-25T09:31:30;28.41;51.43
18361;SHT31;9308;48.550;9.108;2022-08-25T09:33:59;28.75;51.92
18361;SHT31;9308;48.550;9.108;2022-08-25T09:36:25;29.11;49.73
18361;SHT31;9308;48.550;9.108;2022-08-25T09:38:51;29.04;49.39
18361;SHT31;9308;48.550;9.108;2022-08-25T09:41:34;29.38;49.90
18361;SHT31;9308;48.550;9.108;2022-08-25T09:44:00;29.75;49.36
18361;SHT31;9308;48.550;9.108;2022-08-25T09:46:27;29.69;47.85
18361;SHT31;9308;48.550;9.108;2022-08-25T09:48:55;29.84;47.47
18361;SHT31;9308;48.550;9.108;2022-08-25T09:51:33;29.78;47.48
18361;SHT31;9308;48.550;9.108;2022-08-25T09:54:04;30.51;46.57
18361;SHT31;9308;48.550;9.108;2022-08-25T09:56:32;30.86;45.62
18361;SHT31;9308;48.550;9.108;2022-08-25T09:59:27;31.15;44.74
18361;SHT31;9308;48.550;9.108;2022-08-25T10:01:55;31.50;44.52
18361;SHT31;9308;48.550;9.108;2022-08-25T10:04:39;31.06;45.10
18361;SHT31;9308;48.550;9.108;2022-08-25T10:07:25;31.61;44.90
18361;SHT31;9308;48.550;9.108;2022-08-25T10:09:57;32.19;43.61
18361;SHT31;9308;48.550;9.108;2022-08-25T10:12:29;33.51;41.41
18361;SHT31;9308;48.550;9.108;2022-08-25T10:14:58;40.67;30.02
18361;SHT31;9308;48.550;9.108;2022-08-25T10:17:30;35.47;35.20
18361;SHT31;9308;48.550;9.108;2022-08-25T10:22:33;40.91;29.57
18361;SHT31;9308;48.550;9.108;2022-08-25T10:25:00;34.89;37.74
18361;SHT31;9308;48.550;9.108;2022-08-25T10:27:38;33.07;39.86
18361;SHT31;9308;48.550;9.108;2022-08-25T10:30:32;32.42;41.31
18361;SHT31;9308;48.550;9.108;2022-08-25T10:33:16;31.95;42.92
18361;SHT31;9308;48.550;9.108;2022-08-25T10:35:55;31.60;43.49
18361;SHT31;9308;48.550;9.108;2022-08-25T10:44:06;29.41;47.09
18361;SHT31;9308;48.550;9.108;2022-08-25T10:50:09;29.71;46.12
18361;SHT31;9308;48.550;9.108;2022-08-25T10:52:55;29.86;46.16
18361;SHT31;9308;48.550;9.108;2022-08-25T10:55:36;30.38;44.25
18361;SHT31;9308;48.550;9.108;2022-08-25T11:00:44;30.12;46.58
18361;SHT31;9308;48.550;9.108;2022-08-25T11:03:20;30.58;45.10
18361;SHT31;9308;48.550;9.108;2022-08-25T11:05:57;30.50;44.95
18361;SHT31;9308;48.550;9.108;2022-08-25T11:08:33;30.38;43.84
18361;SHT31;9308;48.550;9.108;2022-08-25T11:11:17;30.08;43.64
18361;SHT31;9308;48.550;9.108;2022-08-25T11:14:05;30.09;45.19
18361;SHT31;9308;48.550;9.108;2022-08-25T11:16:46;30.68;44.61
18361;SHT31;9308;48.550;9.108;2022-08-25T11:19:27;30.98;43.53
18361;SHT31;9308;48.550;9.108;2022-08-25T11:24:46;30.72;43.68
18361;SHT31;9308;48.550;9.108;2022-08-25T11:27:18;30.84;44.61
18361;SHT31;9308;48.550;9.108;2022-08-25T11:29:52;31.18;43.48
18361;SHT31;9308;48.550;9.108;2022-08-25T11:32:22;31.54;42.85
18361;SHT31;9308;48.550;9.108;2022-08-25T11:34:49;31.27;41.62
18361;SHT31;9308;48.550;9.108;2022-08-25T11:37:27;30.74;43.04
18361;SHT31;9308;48.550;9.108;2022-08-25T11:42:51;31.60;41.81
18361;SHT31;9308;48.550;9.108;2022-08-25T11:45:42;31.23;41.12
18361;SHT31;9308;48.550;9.108;2022-08-25T11:51:07;31.78;39.12
18361;SHT31;9308;48.550;9.108;2022-08-25T11:53:36;31.80;41.87
18361;SHT31;9308;48.550;9.108;2022-08-25T11:56:36;32.04;41.50
18361;SHT31;9308;48.550;9.108;2022-08-25T11:58:54;32.08;39.76
18361;SHT31;9308;48.550;9.108;2022-08-25T12:04:40;32.08;39.21
18361;SHT31;9308;48.550;9.108;2022-08-25T12:14:53;31.95;39.48
18361;SHT31;9308;48.550;9.108;2022-08-25T12:17:22;31.50;39.41
18361;SHT31;9308;48.550;9.108;2022-08-25T12:19:51;31.29;39.38
18361;SHT31;9308;48.550;9.108;2022-08-25T12:27:23;30.37;41.04
18361;SHT31;9308;48.550;9.108;2022-08-25T12:30:00;31.18;39.75
18361;SHT31;9308;48.550;9.108;2022-08-25T12:38:04;31.23;40.87
18361;SHT31;9308;48.550;9.108;2022-08-25T12:43:21;31.43;41.11
18361;SHT31;9308;48.550;9.108;2022-08-25T12:45:50;30.74;41.10
18361;SHT31;9308;48.550;9.108;2022-08-25T12:51:18;30.81;41.61
18361;SHT31;9308;48.550;9.108;2022-08-25T12:53:48;30.10;42.09
18361;SHT31;9308;48.550;9.108;2022-08-25T12:56:29;30.64;42.51
18361;SHT31;9308;48.550;9.108;2022-08-25T13:06:57;31.63;39.38
18361;SHT31;9308;48.550;9.108;2022-08-25T13:09:48;31.27;40.13
18361;SHT31;9308;48.550;9.108;2022-08-25T13:15:24;31.64;40.74
18361;SHT31;9308;48.550;9.108;2022-08-25T13:17:50;31.19;40.98
18361;SHT31;9308;48.550;9.108;2022-08-25T13:20:17;31.56;40.73
18361;SHT31;9308;48.550;9.108;2022-08-25T13:22:46;31.66;39.21
18361;SHT31;9308;48.550;9.108;2022-08-25T13:25:31;31.80;39.96
18361;SHT31;9308;48.550;9.108;2022-08-25T13:28:02;31.98;39.29
18361;SHT31;9308;48.550;9.108;2022-08-25T13:30:35;31.94;39.19
18361;SHT31;9308;48.550;9.108;2022-08-25T13:33:20;32.36;39.59
18361;SHT31;9308;48.550;9.108;2022-08-25T13:35:50;32.05;39.48
18361;SHT31;9308;48.550;9.108;2022-08-25T13:38:36;32.80;39.10
18361;SHT31;9308;48.550;9.108;2022-08-25T13:41:03;32.44;37.85
18361;SHT31;9308;48.550;9.108;2022-08-25T13:43:29;32.37;37.69
18361;SHT31;9308;48.550;9.108;2022-08-25T13:45:54;32.44;39.05
18361;SHT31;9308;48.550;9.108;2022-08-25T13:48:38;32.71;38.98
18361;SHT31;9308;48.550;9.108;2022-08-25T13:51:15;31.92;38.80
18361;SHT31;9308;48.550;9.108;2022-08-25T13:53:47;32.05;39.28
18361;SHT31;9308;48.550;9.108;2022-08-25T13:56:22;31.51;39.96
18361;SHT31;9308;48.550;9.108;2022-08-25T13:58:48;31.70;39.94
18361;SHT31;9308;48.550;9.108;2022-08-25T14:01:26;31.85;38.73
18361;SHT31;9308;48.550;9.108;2022-08-25T14:03:54;31.88;39.28
18361;SHT31;9308;48.550;9.108;2022-08-25T14:06:24;31.96;39.44
18361;SHT31;9308;48.550;9.108;2022-08-25T14:11:31;31.85;39.10
18361;SHT31;9308;48.550;9.108;2022-08-25T14:14:03;32.29;38.71
18361;SHT31;9308;48.550;9.108;2022-08-25T14:16:31;31.88;38.66
18361;SHT31;9308;48.550;9.108;2022-08-25T14:18:59;31.29;39.50
18361;SHT31;9308;48.550;9.108;2022-08-25T14:21:29;30.82;40.64
18361;SHT31;9308;48.550;9.108;2022-08-25T14:23:55;31.27;41.13
18361;SHT31;9308;48.550;9.108;2022-08-25T14:26:22;31.50;40.31
18361;SHT31;9308;48.550;9.108;2022-08-25T14:28:48;31.94;38.99
18361;SHT31;9308;48.550;9.108;2022-08-25T14:31:27;32.11;37.60
18361;SHT31;9308;48.550;9.108;2022-08-25T14:33:57;32.22;37.64
18361;SHT31;9308;48.550;9.108;2022-08-25T14:36:23;32.40;38.13
18361;SHT31;9308;48.550;9.108;2022-08-25T14:38:49;31.56;37.54
18361;SHT31;9308;48.550;9.108;2022-08-25T14:41:15;32.26;37.35
18361;SHT31;9308;48.550;9.108;2022-08-25T14:43:40;32.46;38.28
18361;SHT31;9308;48.550;9.108;2022-08-25T14:46:17;32.42;38.47
18361;SHT31;9308;48.550;9.108;2022-08-25T14:48:44;32.59;38.11
18361;SHT31;9308;48.550;9.108;2022-08-25T14:51:12;32.86;36.21
18361;SHT31;9308;48.550;9.108;2022-08-25T14:53:39;32.02;36.67
18361;SHT31;9308;48.550;9.108;2022-08-25T14:56:05;31.88;38.32
18361;SHT31;9308;48.550;9.108;2022-08-25T14:58:30;32.37;37.39
18361;SHT31;9308;48.550;9.108;2022-08-25T15:00:56;32.52;38.27
18361;SHT31;9308;48.550;9.108;2022-08-25T15:03:38;32.76;35.66
18361;SHT31;9308;48.550;9.108;2022-08-25T15:06:06;33.07;38.16
18361;SHT31;9308;48.550;9.108;2022-08-25T15:08:31;32.64;38.29
18361;SHT31;9308;48.550;9.108;2022-08-25T15:11:16;32.71;37.81
18361;SHT31;9308;48.550;9.108;2022-08-25T15:13:41;32.50;36.68
18361;SHT31;9308;48.550;9.108;2022-08-25T15:16:11;32.59;36.95
18361;SHT31;9308;48.550;9.108;2022-08-25T15:18:38;32.91;36.44
18361;SHT31;9308;48.550;9.108;2022-08-25T15:21:04;32.97;37.51
18361;SHT31;9308;48.550;9.108;2022-08-25T15:23:29;33.07;36.21
18361;SHT31;9308;48.550;9.108;2022-08-25T15:25:55;33.01;36.88
18361;SHT31;9308;48.550;9.108;2022-08-25T15:28:21;33.22;34.71
18361;SHT31;9308;48.550;9.108;2022-08-25T15:30:48;34.14;36.58
18361;SHT31;9308;48.550;9.108;2022-08-25T15:33:14;35.59;34.17
18361;SHT31;9308;48.550;9.108;2022-08-25T15:35:39;35.68;31.75
18361;SHT31;9308;48.550;9.108;2022-08-25T15:38:05;37.63;31.68
18361;SHT31;9308;48.550;9.108;2022-08-25T15:40:31;39.15;28.99
18361;SHT31;9308;48.550;9.108;2022-08-25T15:42:58;39.54;27.33
18361;SHT31;9308;48.550;9.108;2022-08-25T15:45:23;39.68;28.52
18361;SHT31;9308;48.550;9.108;2022-08-25T15:47:49;39.64;27.00
18361;SHT31;9308;48.550;9.108;2022-08-25T15:50:18;37.98;30.20
18361;SHT31;9308;48.550;9.108;2022-08-25T15:52:44;37.45;29.02
18361;SHT31;9308;48.550;9.108;2022-08-25T15:55:11;38.24;30.72
18361;SHT31;9308;48.550;9.108;2022-08-25T15:57:36;38.58;29.11
18361;SHT31;9308;48.550;9.108;2022-08-25T16:00:06;38.87;28.14
18361;SHT31;9308;48.550;9.108;2022-08-25T16:02:32;37.91;30.99
18361;SHT31;9308;48.550;9.108;2022-08-25T16:04:59;38.21;29.15
18361;SHT31;9308;48.550;9.108;2022-08-25T16:07:25;38.48;30.12
18361;SHT31;9308;48.550;9.108;2022-08-25T16:09:54;37.94;29.40
18361;SHT31;9308;48.550;9.108;2022-08-25T16:12:21;37.22;28.06
18361;SHT31;9308;48.550;9.108;2022-08-25T16:14:46;38.27;28.98
18361;SHT31;9308;48.550;9.108;2022-08-25T16:17:12;38.49;27.38
18361;SHT31;9308;48.550;9.108;2022-08-25T16:19:39;38.45;28.05
18361;SHT31;9308;48.550;9.108;2022-08-25T16:22:05;37.81;27.97
18361;SHT31;9308;48.550;9.108;2022-08-25T16:24:31;38.58;27.14
18361;SHT31;9308;48.550;9.108;2022-08-25T16:26:56;38.94;26.68
18361;SHT31;9308;48.550;9.108;2022-08-25T16:29:30;38.53;26.79
18361;SHT31;9308;48.550;9.108;2022-08-25T16:31:57;38.56;29.82
18361;SHT31;9308;48.550;9.108;2022-08-25T16:34:24;38.67;29.40
18361;SHT31;9308;48.550;9.108;2022-08-25T16:36:51;39.06;29.51
18361;SHT31;9308;48.550;9.108;2022-08-25T16:39:16;38.63;27.65
18361;SHT31;9308;48.550;9.108;2022-08-25T16:41:42;38.04;29.53
18361;SHT31;9308;48.550;9.108;2022-08-25T16:44:07;37.07;30.02
18361;SHT31;9308;48.550;9.108;2022-08-25T16:46:33;36.75;31.65
18361;SHT31;9308;48.550;9.108;2022-08-25T16:49:00;35.31;32.55
18361;SHT31;9308;48.550;9.108;2022-08-25T16:51:26;34.51;33.57
18361;SHT31;9308;48.550;9.108;2022-08-25T16:53:52;34.01;34.47
18361;SHT31;9308;48.550;9.108;2022-08-25T16:56:36;33.28;36.13
18361;SHT31;9308;48.550;9.108;2022-08-25T16:59:03;32.77;36.32
18361;SHT31;9308;48.550;9.108;2022-08-25T17:01:31;32.80;36.48
18361;SHT31;9308;48.550;9.108;2022-08-25T17:03:58;32.12;37.33
18361;SHT31;9308;48.550;9.108;2022-08-25T17:06:27;31.82;37.38
18361;SHT31;9308;48.550;9.108;2022-08-25T17:08:53;31.73;36.85
18361;SHT31;9308;48.550;9.108;2022-08-25T17:11:21;31.48;37.75